createdAt,value
2017-05-30T05:39:09.757Z,20.65
2017-05-30T05:40:10.340Z,20.69
2017-05-30T05:41:10.920Z,20.77
2017-05-30T05:42:11.516Z,20.85
2017-05-30T05:43:12.082Z,20.77
2017-05-30T05:44:12.663Z,20.81
2017-05-30T05:45:13.244Z,20.93
2017-05-30T05:46:13.823Z,20.87
2017-05-30T05:47:14.405Z,20.93
2017-05-30T05:48:14.986Z,20.99
2017-05-30T05:49:15.566Z,20.84
2017-05-30T05:50:16.149Z,20.75
2017-05-30T05:51:16.731Z,20.63
2017-05-30T05:52:17.310Z,20.75
2017-05-30T05:53:17.893Z,20.75
2017-05-30T05:54:18.473Z,20.74
2017-05-30T05:55:19.058Z,20.95
2017-05-30T05:56:19.634Z,21.03
2017-05-30T05:57:20.214Z,21.24
2017-05-30T05:58:20.796Z,21.22
2017-05-30T05:59:21.376Z,21.18
2017-05-30T06:00:21.956Z,21.14
2017-05-30T06:01:22.536Z,20.97
2017-05-30T06:02:23.115Z,21.05
2017-05-30T06:03:23.697Z,20.99
2017-05-30T06:04:24.279Z,21.20
2017-05-30T06:05:24.859Z,21.15
2017-05-30T06:06:25.439Z,21.43
2017-05-30T06:07:26.019Z,21.24
2017-05-30T06:08:26.601Z,21.32
2017-05-30T06:09:27.180Z,21.36
2017-05-30T06:10:27.762Z,21.32
2017-05-30T06:11:28.356Z,21.43
2017-05-30T06:12:28.950Z,21.60
2017-05-30T06:13:29.529Z,21.55
2017-05-30T06:14:30.110Z,21.46
2017-05-30T06:15:30.690Z,21.57
2017-05-30T06:16:31.270Z,21.85
2017-05-30T06:17:31.850Z,21.92
2017-05-30T06:18:32.430Z,21.57
2017-05-30T06:19:33.018Z,21.46
2017-05-30T06:20:33.604Z,21.58
2017-05-30T06:21:34.187Z,21.79
2017-05-30T06:22:34.779Z,21.85
2017-05-30T06:23:35.361Z,21.75
2017-05-30T06:24:35.943Z,21.48
2017-05-30T06:25:36.523Z,21.43
2017-05-30T06:26:37.116Z,21.46
2017-05-30T06:27:37.696Z,21.48
2017-05-30T06:28:38.277Z,21.51
2017-05-30T06:29:38.861Z,21.62
2017-05-30T06:30:39.439Z,21.61
2017-05-30T06:31:40.020Z,21.72
2017-05-30T06:32:40.600Z,21.66
2017-05-30T06:33:41.182Z,21.62
2017-05-30T06:34:41.763Z,21.83
2017-05-30T06:35:42.343Z,22.13
2017-05-30T06:36:42.933Z,22.06
2017-05-30T06:37:43.504Z,21.99
2017-05-30T06:38:44.085Z,21.92
2017-05-30T06:39:44.675Z,21.87
2017-05-30T06:40:45.256Z,22.15
2017-05-30T06:41:45.837Z,21.75
2017-05-30T06:42:46.418Z,21.67
2017-05-30T06:43:46.998Z,21.62
2017-05-30T06:44:47.579Z,21.73
2017-05-30T06:45:48.160Z,21.77
2017-05-30T06:46:48.741Z,21.85
2017-05-30T06:47:49.332Z,21.80
2017-05-30T06:48:49.925Z,21.73
2017-05-30T06:49:50.506Z,21.58
2017-05-30T06:50:51.085Z,21.52
2017-05-30T06:51:51.666Z,21.61
2017-05-30T06:52:52.247Z,21.42
2017-05-30T06:53:52.829Z,21.40
2017-05-30T06:54:53.410Z,21.51
2017-05-30T06:55:53.989Z,21.57
2017-05-30T06:56:54.573Z,21.64
2017-05-30T06:57:55.153Z,21.66
2017-05-30T06:58:55.737Z,21.64
2017-05-30T06:59:56.318Z,21.72
2017-05-30T07:00:56.898Z,21.72
2017-05-30T07:01:57.479Z,21.77
2017-05-30T07:02:58.059Z,21.64
2017-05-30T07:03:58.641Z,21.80
2017-05-30T07:04:59.221Z,22.15
2017-05-30T07:05:59.802Z,22.06
2017-05-30T07:07:00.394Z,22.18
2017-05-30T07:08:00.976Z,22.11
2017-05-30T07:09:01.556Z,22.38
2017-05-30T07:10:02.140Z,22.29
2017-05-30T07:11:02.720Z,22.20
2017-05-30T07:12:03.299Z,22.26
2017-05-30T07:13:03.881Z,22.14
2017-05-30T07:14:04.464Z,22.15
2017-05-30T07:15:05.044Z,22.26
2017-05-30T07:16:05.626Z,22.33
2017-05-30T07:17:06.206Z,22.55
2017-05-30T07:18:06.787Z,22.63
2017-05-30T07:19:07.367Z,22.65
2017-05-30T07:20:07.949Z,22.70
2017-05-30T07:21:08.529Z,22.55
2017-05-30T07:22:09.111Z,22.73
2017-05-30T07:23:09.696Z,22.93
2017-05-30T07:24:10.275Z,22.72
2017-05-30T07:25:10.857Z,22.81
2017-05-30T07:26:11.437Z,22.66
2017-05-30T07:27:12.017Z,22.59
2017-05-30T07:28:12.600Z,22.80
2017-05-30T07:29:13.182Z,23.03
2017-05-30T07:30:13.776Z,22.98
2017-05-30T07:31:14.368Z,22.85
2017-05-30T07:32:14.952Z,23.00
2017-05-30T07:33:15.531Z,23.18
2017-05-30T07:34:16.112Z,23.10
2017-05-30T07:35:16.691Z,22.94
2017-05-30T07:36:17.273Z,23.00
2017-05-30T07:37:17.856Z,23.06
2017-05-30T07:38:18.435Z,22.94
2017-05-30T07:39:19.017Z,23.18
2017-05-30T07:40:19.598Z,23.24
2017-05-30T07:41:20.180Z,23.39
2017-05-30T07:42:20.763Z,23.17
2017-05-30T07:43:21.343Z,23.06
2017-05-30T07:44:21.923Z,23.23
2017-05-30T07:45:22.504Z,23.31
2017-05-30T07:46:23.086Z,23.31
2017-05-30T07:47:23.670Z,23.18
2017-05-30T07:48:24.266Z,23.20
2017-05-30T07:49:24.830Z,23.03
2017-05-30T07:50:25.415Z,23.18
2017-05-30T07:51:25.993Z,23.50
2017-05-30T07:52:26.576Z,23.68
2017-05-30T07:53:27.156Z,23.62
2017-05-30T07:54:27.737Z,23.77
2017-05-30T07:55:28.323Z,23.40
2017-05-30T07:56:28.902Z,23.50
2017-05-30T07:57:29.484Z,23.51
2017-05-30T07:58:30.076Z,23.39
2017-05-30T07:59:30.656Z,23.48
2017-05-30T08:00:31.240Z,23.43
2017-05-30T08:01:31.821Z,23.86
2017-05-30T08:02:32.416Z,23.95
2017-05-30T08:03:32.997Z,23.77
2017-05-30T08:04:33.579Z,23.65
2017-05-30T08:05:34.159Z,23.63
2017-05-30T08:06:34.742Z,23.62
2017-05-30T08:07:35.322Z,23.66
2017-05-30T08:08:35.906Z,23.58
2017-05-30T08:09:36.486Z,23.37
2017-05-30T08:10:37.065Z,23.71
2017-05-30T08:11:37.648Z,23.80
2017-05-30T08:12:38.229Z,24.26
2017-05-30T08:13:38.812Z,24.16
2017-05-30T08:14:39.395Z,24.02
2017-05-30T08:15:39.976Z,24.03
2017-05-30T08:16:40.557Z,24.06
2017-05-30T08:17:41.137Z,23.84
2017-05-30T08:18:41.718Z,24.02
2017-05-30T08:19:42.301Z,23.71
2017-05-30T08:20:42.881Z,23.84
2017-05-30T08:21:43.461Z,23.86
2017-05-30T08:22:44.041Z,24.02
2017-05-30T08:23:44.625Z,24.18
2017-05-30T08:24:45.207Z,24.05
2017-05-30T08:25:45.789Z,23.95
2017-05-30T08:26:46.372Z,24.01
2017-05-30T08:27:46.952Z,24.29
2017-05-30T08:28:47.533Z,23.83
2017-05-30T08:29:48.124Z,23.74
2017-05-30T08:30:48.707Z,23.71
2017-05-30T08:31:49.289Z,24.11
2017-05-30T08:32:49.871Z,24.28
2017-05-30T08:33:50.452Z,24.10
2017-05-30T08:34:51.033Z,24.17
2017-05-30T08:35:51.617Z,24.26
2017-05-30T08:36:52.199Z,24.17
2017-05-30T08:37:52.782Z,24.39
2017-05-30T08:38:53.364Z,24.68
2017-05-30T08:39:53.947Z,24.65
2017-05-30T08:40:54.532Z,24.58
2017-05-30T08:41:55.113Z,24.51
2017-05-30T08:42:55.695Z,24.28
2017-05-30T08:43:56.278Z,23.96
2017-05-30T08:44:56.859Z,24.26
2017-05-30T08:45:57.441Z,24.61
2017-05-30T08:46:58.022Z,24.42
2017-05-30T08:47:58.606Z,24.24
2017-05-30T08:48:59.190Z,24.45
2017-05-30T08:49:59.772Z,24.58
2017-05-30T08:52:26.850Z,25.07
2017-05-30T08:53:27.434Z,24.95
2017-05-30T08:54:28.015Z,24.58
2017-05-30T08:55:28.610Z,24.54
2017-05-30T08:56:29.192Z,24.74
2017-05-30T08:57:29.775Z,24.92
2017-05-30T08:58:30.358Z,24.81
2017-05-30T08:59:30.963Z,25.22
2017-05-30T09:00:31.524Z,25.10
2017-05-30T09:01:32.106Z,25.35
2017-05-30T09:02:32.690Z,25.31
2017-05-30T09:03:33.271Z,25.08
2017-05-30T09:04:33.853Z,24.96
2017-05-30T09:05:34.436Z,24.68
2017-05-30T09:06:35.022Z,25.04
2017-05-30T09:07:35.607Z,24.93
2017-05-30T09:08:36.191Z,25.03
2017-05-30T09:09:36.774Z,25.16
2017-05-30T09:10:37.357Z,25.40
2017-05-30T09:11:37.951Z,25.47
2017-05-30T09:12:38.534Z,25.60
2017-05-30T09:13:39.116Z,24.96
2017-05-30T09:14:39.715Z,25.07
2017-05-30T09:15:40.311Z,24.84
2017-05-30T09:16:40.892Z,24.70
2017-05-30T09:17:41.475Z,24.57
2017-05-30T09:18:42.057Z,24.73
2017-05-30T09:19:42.638Z,24.84
2017-05-30T09:20:43.220Z,24.39
2017-05-30T09:21:43.801Z,24.50
2017-05-30T09:22:44.395Z,24.69
2017-05-30T09:23:44.978Z,24.66
2017-05-30T09:24:45.574Z,24.70
2017-05-30T09:25:46.156Z,24.73
2017-05-30T09:26:46.738Z,24.53
2017-05-30T09:27:47.322Z,24.76
2017-05-30T09:28:47.903Z,24.70
2017-05-30T09:29:48.487Z,25.01
2017-05-30T09:30:49.084Z,24.98
2017-05-30T09:31:49.668Z,25.23
2017-05-30T09:32:50.253Z,25.50
2017-05-30T09:33:50.835Z,25.66
2017-05-30T09:34:51.418Z,25.62
2017-05-30T09:35:52.000Z,25.75
2017-05-30T09:36:52.585Z,25.63
2017-05-30T09:37:53.166Z,25.58
2017-05-30T09:38:53.748Z,25.10
2017-05-30T09:39:54.332Z,25.26
2017-05-30T09:40:54.915Z,25.38
2017-05-30T09:41:55.498Z,25.51
2017-05-30T09:42:56.082Z,24.76
2017-05-30T09:43:56.663Z,24.55
2017-05-30T09:44:57.249Z,24.60
2017-05-30T09:45:57.833Z,24.81
2017-05-30T09:46:58.429Z,25.08
2017-05-30T09:47:59.010Z,25.23
2017-05-30T09:48:59.591Z,25.03
2017-05-30T09:50:00.174Z,24.51
2017-05-30T09:51:00.760Z,24.76
2017-05-30T09:52:01.372Z,24.86
2017-05-30T09:53:01.924Z,25.28
2017-05-30T09:54:02.508Z,25.58
2017-05-30T09:55:03.101Z,25.91
2017-05-30T09:56:03.673Z,26.23
2017-05-30T09:57:04.269Z,25.98
2017-05-30T09:58:04.864Z,26.25
2017-05-30T09:59:05.461Z,25.70
2017-05-30T10:00:06.044Z,25.47
2017-05-30T10:01:06.627Z,25.33
2017-05-30T10:02:07.208Z,25.07
2017-05-30T10:03:07.793Z,25.23
2017-05-30T10:04:08.377Z,25.66
2017-05-30T10:05:08.959Z,25.63
2017-05-30T10:06:09.541Z,25.43
2017-05-30T10:07:10.125Z,24.98
2017-05-30T10:08:10.708Z,25.28
2017-05-30T10:09:11.290Z,25.46
2017-05-30T10:10:11.872Z,25.48
2017-05-30T10:11:12.458Z,25.10
2017-05-30T10:12:13.054Z,25.07
2017-05-30T10:13:13.640Z,25.06
2017-05-30T10:14:14.235Z,25.29
2017-05-30T10:15:14.815Z,25.07
2017-05-30T10:16:15.398Z,24.85
2017-05-30T10:17:15.994Z,24.89
2017-05-30T10:18:16.591Z,24.74
2017-05-30T10:19:17.172Z,24.80
2017-05-30T10:20:17.755Z,24.70
2017-05-30T10:21:18.338Z,24.61
2017-05-30T10:22:18.922Z,24.69
2017-05-30T10:23:19.506Z,24.85
2017-05-30T10:24:20.089Z,24.84
2017-05-30T10:25:20.674Z,24.98
2017-05-30T10:26:21.258Z,25.26
2017-05-30T10:27:21.839Z,25.54
2017-05-30T10:28:22.423Z,25.69
2017-05-30T10:29:23.009Z,25.73
2017-05-30T10:30:23.591Z,25.73
2017-05-30T10:31:24.186Z,25.77
2017-05-30T10:32:24.768Z,25.11
2017-05-30T10:33:25.353Z,24.86
2017-05-30T10:34:25.936Z,25.10
2017-05-30T10:35:26.521Z,24.92
2017-05-30T10:36:27.107Z,24.95
2017-05-30T10:37:27.689Z,24.73
2017-05-30T10:38:28.285Z,25.13
2017-05-30T10:39:28.871Z,24.63
2017-05-30T10:40:29.452Z,24.58
2017-05-30T10:41:30.033Z,24.74
2017-05-30T10:42:30.618Z,25.03
2017-05-30T10:43:31.202Z,25.17
2017-05-30T10:44:31.799Z,25.22
2017-05-30T10:45:32.385Z,25.47
2017-05-30T10:46:32.966Z,25.47
2017-05-30T10:47:33.550Z,25.60
2017-05-30T10:48:34.157Z,25.47
2017-05-30T10:49:34.719Z,25.60
2017-05-30T10:50:35.303Z,25.40
2017-05-30T10:51:35.889Z,25.16
2017-05-30T10:52:36.473Z,25.10
2017-05-30T10:53:37.055Z,24.98
2017-05-30T10:54:37.638Z,24.76
2017-05-30T10:55:38.218Z,24.74
2017-05-30T10:56:38.801Z,24.69
2017-05-30T10:57:39.385Z,24.66
2017-05-30T10:58:39.970Z,24.92
2017-05-30T10:59:40.553Z,24.76
2017-05-30T11:00:41.136Z,25.07
2017-05-30T11:01:41.721Z,25.26
2017-05-30T11:02:42.306Z,24.88
2017-05-30T11:03:42.886Z,25.06
2017-05-30T11:04:43.467Z,24.74
2017-05-30T11:05:44.051Z,24.76
2017-05-30T11:06:44.631Z,24.53
2017-05-30T11:07:45.216Z,24.69
2017-05-30T11:08:45.797Z,24.93
2017-05-30T11:09:46.381Z,24.99
2017-05-30T11:10:46.965Z,25.26
2017-05-30T11:11:47.548Z,25.62
2017-05-30T11:12:48.131Z,25.53
2017-05-30T11:13:48.715Z,25.81
2017-05-30T11:14:49.299Z,26.16
2017-05-30T11:15:49.881Z,25.96
2017-05-30T11:16:50.465Z,26.07
2017-05-30T11:17:51.049Z,26.09
2017-05-30T11:18:51.635Z,25.62
2017-05-30T11:19:52.215Z,25.38
2017-05-30T11:20:52.797Z,25.06
2017-05-30T11:21:53.383Z,24.60
2017-05-30T11:22:53.969Z,24.88
2017-05-30T11:23:54.545Z,24.73
2017-05-30T11:24:55.128Z,24.95
2017-05-30T11:25:55.716Z,24.93
2017-05-30T11:26:56.296Z,25.25
2017-05-30T11:27:56.882Z,25.13
2017-05-30T11:28:57.463Z,25.25
2017-05-30T11:29:58.048Z,25.55
2017-05-30T11:30:58.631Z,25.58
2017-05-30T11:31:59.212Z,25.51
2017-05-30T11:32:59.796Z,25.58
2017-05-30T11:34:00.378Z,25.25
2017-05-30T11:35:00.961Z,24.80
2017-05-30T11:36:01.543Z,24.73
2017-05-30T11:37:02.126Z,24.76
2017-05-30T11:38:02.709Z,24.91
2017-05-30T11:39:03.291Z,24.81
2017-05-30T11:40:03.875Z,24.73
2017-05-30T11:41:04.457Z,24.57
2017-05-30T11:42:05.039Z,24.76
2017-05-30T11:43:05.621Z,24.55
2017-05-30T11:44:06.203Z,24.58
2017-05-30T11:45:06.782Z,24.21
2017-05-30T11:46:07.365Z,24.23
2017-05-30T11:47:07.949Z,23.98
2017-05-30T11:48:08.529Z,24.11
2017-05-30T11:49:09.113Z,24.36
2017-05-30T11:50:09.695Z,24.60
2017-05-30T11:51:10.281Z,24.54
2017-05-30T11:52:10.872Z,24.60
2017-05-30T11:53:11.455Z,24.57
2017-05-30T11:54:12.037Z,24.47
2017-05-30T11:55:12.619Z,24.58
2017-05-30T11:56:13.205Z,24.61
2017-05-30T11:57:13.787Z,24.55
2017-05-30T11:58:14.369Z,24.76
2017-05-30T11:59:14.954Z,24.57
2017-05-30T12:00:15.539Z,24.60
2017-05-30T12:01:16.122Z,24.57
2017-05-30T12:02:16.703Z,24.68
2017-05-30T12:03:17.288Z,24.77
2017-05-30T12:04:17.869Z,24.99
2017-05-30T12:05:18.453Z,24.54
2017-05-30T12:06:19.035Z,24.40
2017-05-30T12:07:19.619Z,24.24
2017-05-30T12:08:20.205Z,24.32
2017-05-30T12:09:20.786Z,24.38
2017-05-30T12:10:21.380Z,24.55
2017-05-30T12:11:21.963Z,24.60
2017-05-30T12:12:22.547Z,24.68
2017-05-30T12:13:23.143Z,24.50
2017-05-30T12:14:23.738Z,24.24
2017-05-30T12:15:24.320Z,24.40
2017-05-30T12:16:24.903Z,24.28
2017-05-30T12:17:25.485Z,24.35
2017-05-30T12:18:26.068Z,24.08
2017-05-30T12:19:26.662Z,24.28
2017-05-30T12:20:27.245Z,24.35
2017-05-30T12:21:27.830Z,24.13
2017-05-30T12:22:28.414Z,24.11
2017-05-30T12:23:28.996Z,24.18
2017-05-30T12:24:29.581Z,24.24
2017-05-30T12:25:30.165Z,23.91
2017-05-30T12:26:30.751Z,24.13
2017-05-30T12:27:31.332Z,24.54
2017-05-30T12:28:31.914Z,24.28
2017-05-30T12:29:32.498Z,24.54
2017-05-30T12:30:33.080Z,24.54
2017-05-30T12:31:33.663Z,24.39
2017-05-30T12:32:34.245Z,24.74
2017-05-30T12:33:34.829Z,24.85
2017-05-30T12:34:35.409Z,24.88
2017-05-30T12:35:35.994Z,24.86
2017-05-30T12:36:36.575Z,24.58
2017-05-30T12:37:37.158Z,24.23
2017-05-30T12:38:37.741Z,24.24
2017-05-30T12:39:38.334Z,23.84
2017-05-30T12:40:38.918Z,23.68
2017-05-30T12:41:39.499Z,23.61
2017-05-30T12:42:40.082Z,23.37
2017-05-30T12:43:40.663Z,23.12
2017-05-30T12:44:41.246Z,23.18
2017-05-30T12:45:41.828Z,23.05
2017-05-30T12:46:42.410Z,22.91
2017-05-30T12:47:42.994Z,22.90
2017-05-30T12:48:43.576Z,22.98
2017-05-30T12:49:44.159Z,23.02
2017-05-30T12:50:44.755Z,22.70
2017-05-30T12:51:45.326Z,22.62
2017-05-30T12:52:45.907Z,22.70
2017-05-30T12:53:46.490Z,22.98
2017-05-30T12:54:47.083Z,22.81
2017-05-30T12:55:47.664Z,22.50
2017-05-30T12:56:48.258Z,22.43
2017-05-30T12:57:48.842Z,22.53
2017-05-30T12:58:49.424Z,22.50
2017-05-30T12:59:50.007Z,22.59
2017-05-30T13:00:50.588Z,22.60
2017-05-30T13:01:51.170Z,22.47
2017-05-30T13:02:51.754Z,22.65
2017-05-30T13:03:52.335Z,22.70
2017-05-30T13:04:52.930Z,23.05
2017-05-30T13:05:53.514Z,23.08
2017-05-30T13:06:54.093Z,23.17
2017-05-30T13:07:54.675Z,23.12
2017-05-30T13:08:55.259Z,23.25
2017-05-30T13:09:55.841Z,23.31
2017-05-30T13:10:56.425Z,23.37
2017-05-30T13:11:57.008Z,23.55
2017-05-30T13:12:57.589Z,23.78
2017-05-30T13:13:58.172Z,23.95
2017-05-30T13:14:58.755Z,24.17
2017-05-30T13:15:59.338Z,24.40
2017-05-30T13:16:59.920Z,24.73
2017-05-30T13:18:00.502Z,24.10
2017-05-30T13:19:01.085Z,23.92
2017-05-30T13:20:01.674Z,23.81
2017-05-30T13:21:02.253Z,23.78
2017-05-30T13:22:02.837Z,24.36
2017-05-30T13:23:03.421Z,24.36
2017-05-30T13:24:04.002Z,24.76
2017-05-30T13:25:04.585Z,25.11
2017-05-30T13:26:05.169Z,25.22
2017-05-30T13:27:05.750Z,24.91
2017-05-30T13:28:06.334Z,25.01
2017-05-30T13:29:06.917Z,24.65
2017-05-30T13:30:07.503Z,24.55
2017-05-30T13:31:08.086Z,24.53
2017-05-30T13:32:08.668Z,25.01
2017-05-30T13:33:09.265Z,25.29
2017-05-30T13:34:09.848Z,24.92
2017-05-30T13:35:10.437Z,25.18
2017-05-30T13:36:11.015Z,24.89
2017-05-30T13:37:11.598Z,24.91
2017-05-30T13:38:12.183Z,24.73
2017-05-30T13:39:12.767Z,24.73
2017-05-30T13:40:13.351Z,24.74
2017-05-30T13:41:13.935Z,24.92
2017-05-30T13:42:14.517Z,24.63
2017-05-30T13:43:15.101Z,24.96
2017-05-30T13:44:15.684Z,24.65
2017-05-30T13:45:16.267Z,24.84
2017-05-30T13:46:16.852Z,25.11
2017-05-30T13:47:17.435Z,25.17
2017-05-30T13:48:18.018Z,25.01
2017-05-30T13:49:18.611Z,24.95
2017-05-30T13:50:19.206Z,25.40
2017-05-30T13:51:19.789Z,25.50
2017-05-30T13:52:20.376Z,25.43
2017-05-30T13:53:20.955Z,25.22
2017-05-30T13:54:21.540Z,24.93
2017-05-30T13:55:22.124Z,24.91
2017-05-30T13:56:22.708Z,25.17
2017-05-30T13:57:23.303Z,25.32
2017-05-30T13:58:23.886Z,24.98
2017-05-30T13:59:24.471Z,24.84
2017-05-30T14:00:25.052Z,25.14
2017-05-30T14:01:25.637Z,25.28
2017-05-30T14:02:26.224Z,25.59
2017-05-30T14:03:26.809Z,25.53
2017-05-30T14:04:27.403Z,25.59
2017-05-30T14:05:27.988Z,25.63
2017-05-30T14:06:28.573Z,25.38
2017-05-30T14:07:29.155Z,25.59
2017-05-30T14:08:29.739Z,25.31
2017-05-30T14:09:30.323Z,25.31
2017-05-30T14:10:30.905Z,25.80
2017-05-30T14:11:31.487Z,26.10
2017-05-30T14:12:32.071Z,25.77
2017-05-30T14:13:32.654Z,25.36
2017-05-30T14:14:33.239Z,25.23
2017-05-30T14:15:33.822Z,25.07
2017-05-30T14:16:34.404Z,24.80
2017-05-30T14:17:34.988Z,24.69
2017-05-30T14:18:35.572Z,24.54
2017-05-30T14:19:36.155Z,24.61
2017-05-30T14:20:36.740Z,24.54
2017-05-30T14:21:37.321Z,24.48
2017-05-30T14:22:37.905Z,24.73
2017-05-30T14:23:38.485Z,24.98
2017-05-30T14:24:39.067Z,25.10
2017-05-30T14:25:39.651Z,24.91
2017-05-30T14:26:40.233Z,24.81
2017-05-30T14:27:40.817Z,24.74
2017-05-30T14:28:41.414Z,24.53
2017-05-30T14:29:41.996Z,24.93
2017-05-30T14:30:42.832Z,24.96
2017-05-30T14:31:43.417Z,24.96
2017-05-30T14:32:44.001Z,25.40
2017-05-30T14:33:44.582Z,25.16
2017-05-30T14:34:45.165Z,25.17
2017-05-30T14:35:45.750Z,25.50
2017-05-30T14:36:46.334Z,25.46
2017-05-30T14:37:46.915Z,25.40
2017-05-30T14:38:47.510Z,25.60
2017-05-30T14:39:48.093Z,25.38
2017-05-30T14:40:48.677Z,25.22
2017-05-30T14:41:49.259Z,24.95
2017-05-30T14:42:49.843Z,24.86
2017-05-30T14:43:50.425Z,24.84
2017-05-30T14:44:51.008Z,24.78
2017-05-30T14:45:51.591Z,24.95
2017-05-30T14:46:52.173Z,24.70
2017-05-30T14:47:52.756Z,24.70
2017-05-30T14:48:53.341Z,24.86
2017-05-30T14:49:53.923Z,24.68
2017-05-30T14:50:54.506Z,25.23
2017-05-30T14:51:55.114Z,24.98
2017-05-30T14:52:55.697Z,24.89
2017-05-30T14:53:56.279Z,24.54
2017-05-30T14:54:56.861Z,24.53
2017-05-30T14:55:57.443Z,24.58
2017-05-30T14:56:58.040Z,24.61
2017-05-30T14:57:58.621Z,24.54
2017-05-30T14:58:59.205Z,24.51
2017-05-30T14:59:59.785Z,24.50
2017-05-30T15:01:00.369Z,24.57
2017-05-30T15:02:00.952Z,25.06
2017-05-30T15:03:01.534Z,24.74
2017-05-30T15:04:02.119Z,24.84
2017-05-30T15:05:02.716Z,25.25
2017-05-30T15:06:03.297Z,25.31
2017-05-30T15:07:03.878Z,24.91
2017-05-30T15:08:04.461Z,24.91
2017-05-30T15:09:05.043Z,24.73
2017-05-30T15:10:05.626Z,24.76
2017-05-30T15:11:06.209Z,24.69
2017-05-30T15:12:06.790Z,24.42
2017-05-30T15:13:07.372Z,24.57
2017-05-30T15:14:07.957Z,24.33
2017-05-30T15:15:08.538Z,24.17
2017-05-30T15:16:09.122Z,24.39
2017-05-30T15:17:09.716Z,24.42
2017-05-30T15:18:10.299Z,24.50
2017-05-30T15:19:10.884Z,24.40
2017-05-30T15:20:11.467Z,24.70
2017-05-30T15:21:12.052Z,24.73
2017-05-30T15:22:12.632Z,24.93
2017-05-30T15:23:13.218Z,24.61
2017-05-30T15:24:13.803Z,24.81
2017-05-30T15:25:14.389Z,24.89
2017-05-30T15:26:14.966Z,25.11
2017-05-30T15:27:15.551Z,24.57
2017-05-30T15:28:16.133Z,24.38
2017-05-30T15:29:16.715Z,24.50
2017-05-30T15:30:17.298Z,24.02
2017-05-30T15:31:17.881Z,24.02
2017-05-30T15:32:18.465Z,24.08
2017-05-30T15:33:19.047Z,24.16
2017-05-30T15:34:19.632Z,24.30
2017-05-30T15:35:20.225Z,24.01
2017-05-30T15:36:20.807Z,24.16
2017-05-30T15:37:21.389Z,23.96
2017-05-30T15:38:21.973Z,23.91
2017-05-30T15:39:22.556Z,23.88
2017-05-30T15:40:23.137Z,23.84
2017-05-30T15:41:23.721Z,23.74
2017-05-30T15:42:24.303Z,23.78
2017-05-30T15:43:24.898Z,23.83
2017-05-30T15:44:25.481Z,23.69
2017-05-30T15:45:26.064Z,23.68
2017-05-30T15:46:26.647Z,23.73
2017-05-30T15:47:27.235Z,23.59
2017-05-30T15:48:27.814Z,23.66
2017-05-30T15:49:28.396Z,23.65
2017-05-30T15:50:28.982Z,23.80
2017-05-30T15:51:29.564Z,24.16
2017-05-30T15:52:30.145Z,24.53
2017-05-30T15:53:30.729Z,24.47
2017-05-30T15:54:31.311Z,24.55
2017-05-30T15:55:31.895Z,24.63
2017-05-30T15:56:32.476Z,24.61
2017-05-30T15:57:33.058Z,24.23
2017-05-30T15:58:33.652Z,24.10
2017-05-30T15:59:34.236Z,23.88
2017-05-30T16:00:34.819Z,24.08
2017-05-30T16:01:35.412Z,24.11
2017-05-30T16:02:36.007Z,24.01
2017-05-30T16:03:36.590Z,23.96
2017-05-30T16:04:37.172Z,23.92
2017-05-30T16:05:37.753Z,24.05
2017-05-30T16:06:38.335Z,23.83
2017-05-30T16:07:38.918Z,24.01
2017-05-30T16:08:39.501Z,23.80
2017-05-30T16:09:40.084Z,23.83
2017-05-30T16:10:40.664Z,23.84
2017-05-30T16:11:41.246Z,23.78
2017-05-30T16:12:41.828Z,23.66
2017-05-30T16:13:42.412Z,23.59
2017-05-30T16:14:42.994Z,23.61
2017-05-30T16:15:43.576Z,23.80
2017-05-30T16:16:44.169Z,23.91
2017-05-30T16:17:44.763Z,23.84
2017-05-30T16:18:45.344Z,23.66
2017-05-30T16:19:45.926Z,23.77
2017-05-30T16:20:46.510Z,23.71
2017-05-30T16:21:47.093Z,23.61
2017-05-30T16:22:47.678Z,23.62
2017-05-30T16:23:48.260Z,23.69
2017-05-30T16:24:48.848Z,23.99
2017-05-30T16:25:49.428Z,24.47
2017-05-30T16:26:50.013Z,24.69
2017-05-30T16:27:50.597Z,24.78
2017-05-30T16:28:51.182Z,24.66
2017-05-30T16:29:51.770Z,24.73
2017-05-30T16:30:52.349Z,24.66
2017-05-30T16:31:52.936Z,24.69
2017-05-30T16:32:53.520Z,24.91
2017-05-30T16:33:54.102Z,24.78
2017-05-30T16:34:54.685Z,24.53
2017-05-30T16:35:55.268Z,24.53
2017-05-30T16:36:55.850Z,24.48
2017-05-30T16:37:56.435Z,24.53
2017-05-30T16:38:57.019Z,24.29
2017-05-30T16:39:57.615Z,24.13
2017-05-30T16:40:58.211Z,23.78
2017-05-30T16:41:58.795Z,23.62
2017-05-30T16:42:59.377Z,23.76
2017-05-30T16:43:59.960Z,23.84
2017-05-30T16:45:00.545Z,23.84
2017-05-30T16:46:01.142Z,23.91
2017-05-30T16:47:01.725Z,23.74
2017-05-30T16:48:02.308Z,23.96
2017-05-30T16:49:02.891Z,23.84
2017-05-30T16:50:03.472Z,23.58
2017-05-30T16:51:04.056Z,23.54
2017-05-30T16:52:04.637Z,23.34
2017-05-30T16:53:05.232Z,23.23
2017-05-30T16:54:05.814Z,23.37
2017-05-30T16:55:06.397Z,23.36
2017-05-30T16:56:06.978Z,23.43
2017-05-30T16:57:07.563Z,23.55
2017-05-30T16:58:08.145Z,23.58
2017-05-30T16:59:08.724Z,23.66
2017-05-30T17:00:09.316Z,23.66
2017-05-30T17:01:09.907Z,23.43
2017-05-30T17:02:10.487Z,23.28
2017-05-30T17:03:11.069Z,23.32
2017-05-30T17:04:11.651Z,23.39
2017-05-30T17:05:12.233Z,23.48
2017-05-30T17:06:12.818Z,23.12
2017-05-30T17:07:13.414Z,23.32
2017-05-30T17:08:14.010Z,23.20
2017-05-30T17:09:14.592Z,23.09
2017-05-30T17:10:15.176Z,23.02
2017-05-30T17:11:15.760Z,23.03
2017-05-30T17:12:16.341Z,23.05
2017-05-30T17:13:16.925Z,23.05
2017-05-30T17:14:17.521Z,23.05
2017-05-30T17:15:18.103Z,22.75
2017-05-30T17:16:18.684Z,22.91
2017-05-30T17:17:19.267Z,22.90
2017-05-30T17:18:19.849Z,22.98
2017-05-30T17:19:20.431Z,22.76
2017-05-30T17:20:21.013Z,22.68
2017-05-30T17:21:21.596Z,22.44
2017-05-30T17:22:22.178Z,22.29
2017-05-30T17:23:22.761Z,22.22
2017-05-30T17:24:23.342Z,22.33
2017-05-30T17:25:23.925Z,22.23
2017-05-30T17:26:24.506Z,22.15
2017-05-30T17:27:25.099Z,22.33
2017-05-30T17:28:25.683Z,22.55
2017-05-30T17:29:26.264Z,22.17
2017-05-30T17:30:26.857Z,22.14
2017-05-30T17:31:27.439Z,22.10
2017-05-30T17:32:28.021Z,22.14
2017-05-30T17:33:28.602Z,22.10
2017-05-30T17:34:29.184Z,22.13
2017-05-30T17:35:29.766Z,22.10
2017-05-30T17:36:30.346Z,21.91
2017-05-30T17:37:30.940Z,21.96
2017-05-30T17:38:31.522Z,21.82
2017-05-30T17:39:32.103Z,21.85
2017-05-30T17:40:32.686Z,21.98
2017-05-30T17:41:33.266Z,22.04
2017-05-30T17:42:33.848Z,21.75
2017-05-30T17:43:34.427Z,21.98
2017-05-30T17:44:35.008Z,22.17
2017-05-30T17:45:35.591Z,22.23
2017-05-30T17:46:36.173Z,21.93
2017-05-30T17:47:36.756Z,21.92
2017-05-30T17:48:37.337Z,21.87
2017-05-30T17:49:37.920Z,21.85
2017-05-30T17:50:38.531Z,21.92
2017-05-30T17:51:39.114Z,21.83
2017-05-30T17:52:39.697Z,22.04
2017-05-30T17:53:40.280Z,22.06
2017-05-30T17:54:40.857Z,21.96
2017-05-30T17:55:41.438Z,21.85
2017-05-30T17:56:42.021Z,21.79
2017-05-30T17:57:42.602Z,21.87
2017-05-30T17:58:43.182Z,21.73
2017-05-30T17:59:43.762Z,21.57
2017-05-30T18:00:44.342Z,21.77
2017-05-30T18:01:44.956Z,21.69
2017-05-30T18:02:45.508Z,21.69
2017-05-30T18:03:46.089Z,21.73
2017-05-30T18:04:46.669Z,21.54
2017-05-30T18:05:47.253Z,21.62
2017-05-30T18:06:47.834Z,21.55
2017-05-30T18:07:48.415Z,21.64
2017-05-30T18:08:48.997Z,21.76
2017-05-30T18:09:49.578Z,21.72
2017-05-30T18:10:50.161Z,22.04
2017-05-30T18:11:50.744Z,21.79
2017-05-30T18:12:51.374Z,22.06
2017-05-30T18:13:51.957Z,21.89
2017-05-30T18:14:52.538Z,21.75
2017-05-30T18:15:53.118Z,21.85
2017-05-30T18:16:53.701Z,21.60
2017-05-30T18:17:54.282Z,21.58
2017-05-30T18:18:54.876Z,21.72
2017-05-30T18:19:55.459Z,21.61
2017-05-30T18:20:56.041Z,21.46
2017-05-30T18:21:56.622Z,21.66
2017-05-30T18:22:57.205Z,21.69
2017-05-30T18:23:57.784Z,21.55
2017-05-30T18:24:58.367Z,21.43
2017-05-30T18:25:58.945Z,21.39
2017-05-30T18:26:59.528Z,21.29
2017-05-30T18:28:00.109Z,21.17
2017-05-30T18:29:00.702Z,21.06
2017-05-30T18:30:01.283Z,21.09
2017-05-30T18:31:01.865Z,20.88
2017-05-30T18:32:02.446Z,20.90
2017-05-30T18:33:03.026Z,20.82
2017-05-30T18:34:03.608Z,20.75
2017-05-30T18:35:04.197Z,20.75
2017-05-30T18:36:04.776Z,20.58
2017-05-30T18:37:05.355Z,20.70
2017-05-30T18:38:05.935Z,20.65
2017-05-30T18:39:06.515Z,20.66
2017-05-30T18:40:07.093Z,20.56